sensor_id;sensor_type;location;lat;lon;timestamp;pressure;altitude;pressure_sealevel;temperature;humidity
37860;BME280;23698;52.014;5.190;2022-08-03T00:02:49;101462.19;;;19.32;100.00
37860;BME280;23698;52.014;5.190;2022-08-03T00:05:55;101468.28;;;19.34;100.00
37860;BME280;23698;52.014;5.190;2022-08-03T00:09:09;101467.84;;;19.37;100.00
37860;BME280;23698;52.014;5.190;2022-08-03T00:12:15;101470.72;;;19.42;100.00
37860;BME280;23698;52.014;5.190;2022-08-03T00:15:21;101464.38;;;19.41;100.00
37860;BME280;23698;52.014;5.190;2022-08-03T00:18:28;101458.75;;;19.36;100.00
37860;BME280;23698;52.014;5.190;2022-08-03T00:21:33;101467.69;;;19.32;100.00
37860;BME280;23698;52.014;5.190;2022-08-03T00:24:40;101467.34;;;19.28;100.00
37860;BME280;23698;52.014;5.190;2022-08-03T00:27:45;101465.28;;;19.23;100.00
37860;BME280;23698;52.014;5.190;2022-08-03T00:30:51;101461.59;;;19.30;100.00
37860;BME280;23698;52.014;5.190;2022-08-03T00:33:56;101454.28;;;19.23;100.00
37860;BME280;23698;52.014;5.190;2022-08-03T00:37:06;101459.53;;;19.25;100.00
37860;BME280;23698;52.014;5.190;2022-08-03T00:40:14;101457.25;;;19.22;100.00
37860;BME280;23698;52.014;5.190;2022-08-03T00:43:24;101459.66;;;19.18;100.00
37860;BME280;23698;52.014;5.190;2022-08-03T00:46:29;101458.44;;;19.14;100.00
37860;BME280;23698;52.014;5.190;2022-08-03T00:49:35;101462.03;;;19.15;100.00
37860;BME280;23698;52.014;5.190;2022-08-03T00:52:40;101454.00;;;19.13;100.00
37860;BME280;23698;52.014;5.190;2022-08-03T00:55:47;101451.69;;;18.98;100.00
37860;BME280;23698;52.014;5.190;2022-08-03T00:58:54;101451.69;;;18.98;100.00
37860;BME280;23698;52.014;5.190;2022-08-03T01:02:00;101455.50;;;18.97;100.00
37860;BME280;23698;52.014;5.190;2022-08-03T01:05:06;101453.94;;;18.90;100.00
37860;BME280;23698;52.014;5.190;2022-08-03T01:08:18;101455.84;;;18.89;100.00
37860;BME280;23698;52.014;5.190;2022-08-03T01:11:32;101454.78;;;18.90;100.00
37860;BME280;23698;52.014;5.190;2022-08-03T01:15:09;101457.59;;;18.83;100.00
37860;BME280;23698;52.014;5.190;2022-08-03T01:18:19;101449.06;;;18.73;100.00
37860;BME280;23698;52.014;5.190;2022-08-03T01:21:29;101451.28;;;18.83;100.00
37860;BME280;23698;52.014;5.190;2022-08-03T01:24:43;101447.25;;;18.85;100.00
37860;BME280;23698;52.014;5.190;2022-08-03T01:28:01;101455.31;;;18.80;100.00
37860;BME280;23698;52.014;5.190;2022-08-03T01:31:12;101451.31;;;18.76;100.00
37860;BME280;23698;52.014;5.190;2022-08-03T01:34:21;101447.38;;;18.72;100.00
37860;BME280;23698;52.014;5.190;2022-08-03T01:37:32;101453.84;;;18.78;100.00
37860;BME280;23698;52.014;5.190;2022-08-03T01:40:43;101452.03;;;18.72;100.00
37860;BME280;23698;52.014;5.190;2022-08-03T01:43:52;101455.84;;;18.71;100.00
37860;BME280;23698;52.014;5.190;2022-08-03T01:47:20;101445.81;;;18.64;100.00
37860;BME280;23698;52.014;5.190;2022-08-03T01:50:28;101446.19;;;18.68;100.00
37860;BME280;23698;52.014;5.190;2022-08-03T01:53:35;101443.81;;;18.72;100.00
37860;BME280;23698;52.014;5.190;2022-08-03T01:56:45;101439.28;;;18.77;100.00
37860;BME280;23698;52.014;5.190;2022-08-03T01:59:55;101434.63;;;18.78;100.00
37860;BME280;23698;52.014;5.190;2022-08-03T02:03:04;101443.09;;;18.76;100.00
37860;BME280;23698;52.014;5.190;2022-08-03T02:06:11;101440.56;;;18.75;100.00
37860;BME280;23698;52.014;5.190;2022-08-03T02:09:37;101445.84;;;18.76;100.00
37860;BME280;23698;52.014;5.190;2022-08-03T02:12:44;101433.88;;;18.71;100.00
37860;BME280;23698;52.014;5.190;2022-08-03T02:15:54;101442.34;;;18.69;100.00
37860;BME280;23698;52.014;5.190;2022-08-03T02:19:04;101433.50;;;18.67;100.00
37860;BME280;23698;52.014;5.190;2022-08-03T02:22:12;101436.72;;;18.64;100.00
37860;BME280;23698;52.014;5.190;2022-08-03T02:25:18;101435.03;;;18.63;100.00
37860;BME280;23698;52.014;5.190;2022-08-03T02:28:31;101438.25;;;18.60;100.00
37860;BME280;23698;52.014;5.190;2022-08-03T02:31:40;101434.03;;;18.57;100.00
37860;BME280;23698;52.014;5.190;2022-08-03T02:34:50;101435.19;;;18.49;100.00
37860;BME280;23698;52.014;5.190;2022-08-03T02:38:00;101427.56;;;18.52;100.00
37860;BME280;23698;52.014;5.190;2022-08-03T02:41:08;101418.88;;;18.55;100.00
37860;BME280;23698;52.014;5.190;2022-08-03T02:44:25;101418.72;;;18.49;100.00
37860;BME280;23698;52.014;5.190;2022-08-03T02:47:34;101417.09;;;18.60;100.00
37860;BME280;23698;52.014;5.190;2022-08-03T02:50:59;101416.28;;;18.60;100.00
37860;BME280;23698;52.014;5.190;2022-08-03T02:54:07;101408.56;;;18.50;100.00
37860;BME280;23698;52.014;5.190;2022-08-03T02:57:14;101405.84;;;18.50;100.00
37860;BME280;23698;52.014;5.190;2022-08-03T03:00:19;101410.34;;;18.44;100.00
37860;BME280;23698;52.014;5.190;2022-08-03T03:03:32;101413.25;;;18.49;100.00
37860;BME280;23698;52.014;5.190;2022-08-03T03:06:50;101407.59;;;18.44;100.00
37860;BME280;23698;52.014;5.190;2022-08-03T03:09:59;101408.66;;;18.43;100.00
37860;BME280;23698;52.014;5.190;2022-08-03T03:13:06;101401.38;;;18.37;100.00
37860;BME280;23698;52.014;5.190;2022-08-03T03:16:13;101404.78;;;18.33;100.00
37860;BME280;23698;52.014;5.190;2022-08-03T03:19:20;101408.91;;;18.23;100.00
37860;BME280;23698;52.014;5.190;2022-08-03T03:22:27;101403.06;;;18.20;100.00
37860;BME280;23698;52.014;5.190;2022-08-03T03:25:35;101399.31;;;18.14;100.00
37860;BME280;23698;52.014;5.190;2022-08-03T03:28:41;101403.19;;;18.25;100.00
37860;BME280;23698;52.014;5.190;2022-08-03T03:31:48;101400.22;;;18.26;100.00
37860;BME280;23698;52.014;5.190;2022-08-03T03:34:54;101407.00;;;18.24;100.00
37860;BME280;23698;52.014;5.190;2022-08-03T03:38:03;101409.59;;;18.19;100.00
37860;BME280;23698;52.014;5.190;2022-08-03T03:41:09;101411.72;;;18.17;100.00
37860;BME280;23698;52.014;5.190;2022-08-03T03:44:14;101403.94;;;18.14;100.00
37860;BME280;23698;52.014;5.190;2022-08-03T03:47:20;101409.06;;;18.10;100.00
37860;BME280;23698;52.014;5.190;2022-08-03T03:50:36;101407.03;;;18.05;100.00
37860;BME280;23698;52.014;5.190;2022-08-03T03:53:55;101407.03;;;18.05;100.00
37860;BME280;23698;52.014;5.190;2022-08-03T03:57:02;101406.00;;;18.00;100.00
37860;BME280;23698;52.014;5.190;2022-08-03T04:00:08;101408.53;;;18.01;100.00
37860;BME280;23698;52.014;5.190;2022-08-03T04:03:14;101409.81;;;17.99;100.00
37860;BME280;23698;52.014;5.190;2022-08-03T04:06:19;101403.03;;;18.01;100.00
37860;BME280;23698;52.014;5.190;2022-08-03T04:09:44;101408.13;;;17.98;100.00
37860;BME280;23698;52.014;5.190;2022-08-03T04:13:19;101408.75;;;18.00;100.00
37860;BME280;23698;52.014;5.190;2022-08-03T04:16:29;101413.56;;;18.04;100.00
37860;BME280;23698;52.014;5.190;2022-08-03T04:19:37;101402.22;;;18.01;100.00
37860;BME280;23698;52.014;5.190;2022-08-03T04:22:45;101412.94;;;18.02;100.00
37860;BME280;23698;52.014;5.190;2022-08-03T04:25:55;101411.41;;;18.06;100.00
37860;BME280;23698;52.014;5.190;2022-08-03T04:29:03;101416.69;;;18.08;100.00
37860;BME280;23698;52.014;5.190;2022-08-03T04:32:10;101419.44;;;18.08;100.00
37860;BME280;23698;52.014;5.190;2022-08-03T04:35:17;101414.00;;;18.01;100.00
37860;BME280;23698;52.014;5.190;2022-08-03T04:38:23;101415.41;;;18.10;100.00
37860;BME280;23698;52.014;5.190;2022-08-03T04:41:30;101419.44;;;18.08;100.00
37860;BME280;23698;52.014;5.190;2022-08-03T04:44:56;101418.59;;;18.07;100.00
37860;BME280;23698;52.014;5.190;2022-08-03T04:48:04;101422.41;;;18.06;100.00
37860;BME280;23698;52.014;5.190;2022-08-03T04:51:10;101418.75;;;18.13;100.00
37860;BME280;23698;52.014;5.190;2022-08-03T04:54:16;101421.44;;;18.19;100.00
37860;BME280;23698;52.014;5.190;2022-08-03T04:57:23;101422.19;;;18.26;100.00
37860;BME280;23698;52.014;5.190;2022-08-03T05:00:29;101426.59;;;18.27;100.00
37860;BME280;23698;52.014;5.190;2022-08-03T05:03:34;101425.53;;;18.28;100.00
37860;BME280;23698;52.014;5.190;2022-08-03T05:06:39;101431.78;;;18.36;100.00
37860;BME280;23698;52.014;5.190;2022-08-03T05:09:51;101428.22;;;18.35;100.00
37860;BME280;23698;52.014;5.190;2022-08-03T05:13:07;101432.16;;;18.39;100.00
37860;BME280;23698;52.014;5.190;2022-08-03T05:16:14;101433.78;;;18.47;100.00
37860;BME280;23698;52.014;5.190;2022-08-03T05:19:19;101434.53;;;18.54;100.00
37860;BME280;23698;52.014;5.190;2022-08-03T05:22:25;101440.69;;;18.68;100.00
37860;BME280;23698;52.014;5.190;2022-08-03T05:25:30;101444.13;;;18.82;100.00
37860;BME280;23698;52.014;5.190;2022-08-03T05:28:37;101436.63;;;18.89;100.00
37860;BME280;23698;52.014;5.190;2022-08-03T05:31:54;101433.91;;;19.01;100.00
37860;BME280;23698;52.014;5.190;2022-08-03T05:34:59;101437.19;;;19.21;100.00
37860;BME280;23698;52.014;5.190;2022-08-03T05:38:25;101434.63;;;19.38;100.00
37860;BME280;23698;52.014;5.190;2022-08-03T05:41:37;101442.25;;;19.48;100.00
37860;BME280;23698;52.014;5.190;2022-08-03T05:44:44;101439.41;;;19.67;100.00
37860;BME280;23698;52.014;5.190;2022-08-03T05:47:50;101435.38;;;19.81;100.00
37860;BME280;23698;52.014;5.190;2022-08-03T05:50:55;101441.00;;;19.98;100.00
37860;BME280;23698;52.014;5.190;2022-08-03T05:54:00;101439.44;;;20.02;100.00
37860;BME280;23698;52.014;5.190;2022-08-03T05:57:06;101432.75;;;20.10;100.00
37860;BME280;23698;52.014;5.190;2022-08-03T06:00:13;101428.53;;;20.31;100.00
37860;BME280;23698;52.014;5.190;2022-08-03T06:03:19;101429.44;;;20.48;100.00
37860;BME280;23698;52.014;5.190;2022-08-03T06:06:25;101430.13;;;20.67;100.00
37860;BME280;23698;52.014;5.190;2022-08-03T06:09:35;101430.47;;;20.59;100.00
37860;BME280;23698;52.014;5.190;2022-08-03T06:13:00;101432.44;;;20.47;100.00
37860;BME280;23698;52.014;5.190;2022-08-03T06:16:07;101435.84;;;20.78;100.00
37860;BME280;23698;52.014;5.190;2022-08-03T06:19:12;101429.97;;;21.03;100.00
37860;BME280;23698;52.014;5.190;2022-08-03T06:22:17;101437.03;;;21.44;100.00
37860;BME280;23698;52.014;5.190;2022-08-03T06:25:24;101440.16;;;21.48;100.00
37860;BME280;23698;52.014;5.190;2022-08-03T06:28:30;101434.50;;;21.55;100.00
37860;BME280;23698;52.014;5.190;2022-08-03T06:31:56;101439.47;;;21.75;100.00
37860;BME280;23698;52.014;5.190;2022-08-03T06:35:02;101442.97;;;21.87;100.00
37860;BME280;23698;52.014;5.190;2022-08-03T06:38:08;101430.78;;;21.83;100.00
37860;BME280;23698;52.014;5.190;2022-08-03T06:41:13;101432.56;;;22.11;100.00
37860;BME280;23698;52.014;5.190;2022-08-03T06:44:19;101435.44;;;21.99;100.00
37860;BME280;23698;52.014;5.190;2022-08-03T06:47:25;101444.75;;;22.15;100.00
37860;BME280;23698;52.014;5.190;2022-08-03T06:50:31;101434.47;;;22.28;100.00
37860;BME280;23698;52.014;5.190;2022-08-03T06:53:37;101443.47;;;22.40;100.00
37860;BME280;23698;52.014;5.190;2022-08-03T06:56:42;101437.81;;;22.52;100.00
37860;BME280;23698;52.014;5.190;2022-08-03T06:59:47;101431.06;;;22.65;100.00
37860;BME280;23698;52.014;5.190;2022-08-03T07:03:14;101428.88;;;22.67;100.00
37860;BME280;23698;52.014;5.190;2022-08-03T07:06:20;101451.03;;;22.72;100.00
37860;BME280;23698;52.014;5.190;2022-08-03T07:09:24;101441.31;;;22.91;100.00
37860;BME280;23698;52.014;5.190;2022-08-03T07:12:31;101446.59;;;23.20;100.00
37860;BME280;23698;52.014;5.190;2022-08-03T07:15:37;101450.88;;;23.06;100.00
37860;BME280;23698;52.014;5.190;2022-08-03T07:19:00;101461.44;;;22.87;100.00
37860;BME280;23698;52.014;5.190;2022-08-03T07:22:05;101456.41;;;23.06;100.00
37860;BME280;23698;52.014;5.190;2022-08-03T07:25:11;101468.59;;;23.10;100.00
37860;BME280;23698;52.014;5.190;2022-08-03T07:28:17;101463.63;;;23.39;100.00
37860;BME280;23698;52.014;5.190;2022-08-03T07:31:22;101460.84;;;23.66;100.00
37860;BME280;23698;52.014;5.190;2022-08-03T07:34:29;101459.75;;;23.72;100.00
37860;BME280;23698;52.014;5.190;2022-08-03T07:37:35;101473.81;;;23.66;100.00
37860;BME280;23698;52.014;5.190;2022-08-03T07:40:40;101467.00;;;23.79;100.00
37860;BME280;23698;52.014;5.190;2022-08-03T07:43:49;101467.66;;;23.86;100.00
37860;BME280;23698;52.014;5.190;2022-08-03T07:46:55;101457.53;;;24.07;100.00
37860;BME280;23698;52.014;5.190;2022-08-03T07:50:04;101461.88;;;24.40;100.00
37860;BME280;23698;52.014;5.190;2022-08-03T07:53:11;101462.09;;;24.34;100.00
37860;BME280;23698;52.014;5.190;2022-08-03T07:56:16;101460.06;;;24.13;100.00
37860;BME280;23698;52.014;5.190;2022-08-03T07:59:22;101453.13;;;24.59;100.00
37860;BME280;23698;52.014;5.190;2022-08-03T08:02:28;101455.41;;;24.82;100.00
37860;BME280;23698;52.014;5.190;2022-08-03T08:05:34;101455.56;;;24.50;100.00
37860;BME280;23698;52.014;5.190;2022-08-03T08:08:40;101449.84;;;24.77;100.00
37860;BME280;23698;52.014;5.190;2022-08-03T08:11:45;101456.56;;;25.12;100.00
37860;BME280;23698;52.014;5.190;2022-08-03T08:14:50;101455.25;;;25.40;100.00
37860;BME280;23698;52.014;5.190;2022-08-03T08:17:57;101458.75;;;24.95;100.00
37860;BME280;23698;52.014;5.190;2022-08-03T08:21:04;101458.88;;;25.51;100.00
37860;BME280;23698;52.014;5.190;2022-08-03T08:24:11;101456.09;;;25.41;100.00
37860;BME280;23698;52.014;5.190;2022-08-03T08:27:21;101461.63;;;25.72;100.00
37860;BME280;23698;52.014;5.190;2022-08-03T08:30:26;101459.66;;;25.93;100.00
37860;BME280;23698;52.014;5.190;2022-08-03T08:33:34;101462.44;;;25.88;100.00
37860;BME280;23698;52.014;5.190;2022-08-03T08:37:00;101473.22;;;26.25;100.00
37860;BME280;23698;52.014;5.190;2022-08-03T08:40:07;101467.19;;;25.97;100.00
37860;BME280;23698;52.014;5.190;2022-08-03T08:43:13;101471.03;;;25.91;100.00
37860;BME280;23698;52.014;5.190;2022-08-03T08:46:19;101472.06;;;26.42;100.00
37860;BME280;23698;52.014;5.190;2022-08-03T08:49:27;101460.53;;;25.78;100.00
37860;BME280;23698;52.014;5.190;2022-08-03T08:52:34;101464.59;;;26.32;100.00
37860;BME280;23698;52.014;5.190;2022-08-03T08:55:41;101468.22;;;26.27;100.00
37860;BME280;23698;52.014;5.190;2022-08-03T08:59:03;101468.00;;;26.84;100.00
37860;BME280;23698;52.014;5.190;2022-08-03T09:02:09;101468.63;;;26.75;100.00
37860;BME280;23698;52.014;5.190;2022-08-03T09:05:15;101469.63;;;26.95;100.00
37860;BME280;23698;52.014;5.190;2022-08-03T09:08:23;101466.25;;;27.03;100.00
37860;BME280;23698;52.014;5.190;2022-08-03T09:11:28;101472.84;;;26.63;100.00
37860;BME280;23698;52.014;5.190;2022-08-03T09:14:54;101470.13;;;26.42;100.00
37860;BME280;23698;52.014;5.190;2022-08-03T09:18:27;101470.78;;;26.84;100.00
37860;BME280;23698;52.014;5.190;2022-08-03T09:21:36;101469.72;;;27.29;100.00
37860;BME280;23698;52.014;5.190;2022-08-03T09:24:56;101465.72;;;27.41;100.00
37860;BME280;23698;52.014;5.190;2022-08-03T09:28:21;101460.22;;;27.25;100.00
37860;BME280;23698;52.014;5.190;2022-08-03T09:31:46;101469.50;;;27.16;100.00
37860;BME280;23698;52.014;5.190;2022-08-03T09:34:52;101463.50;;;26.98;100.00
37860;BME280;23698;52.014;5.190;2022-08-03T09:38:12;101457.47;;;27.60;100.00
37860;BME280;23698;52.014;5.190;2022-08-03T09:41:19;101464.41;;;27.62;100.00
37860;BME280;23698;52.014;5.190;2022-08-03T09:44:32;101460.63;;;27.82;100.00
37860;BME280;23698;52.014;5.190;2022-08-03T09:47:38;101456.09;;;27.86;100.00
37860;BME280;23698;52.014;5.190;2022-08-03T09:50:48;101465.59;;;27.85;100.00
37860;BME280;23698;52.014;5.190;2022-08-03T09:54:25;101456.16;;;28.11;100.00
37860;BME280;23698;52.014;5.190;2022-08-03T09:57:32;101460.47;;;28.22;100.00
37860;BME280;23698;52.014;5.190;2022-08-03T10:00:52;101461.47;;;27.78;100.00
37860;BME280;23698;52.014;5.190;2022-08-03T10:03:57;101466.84;;;28.28;100.00
37860;BME280;23698;52.014;5.190;2022-08-03T10:07:08;101462.28;;;28.37;100.00
37860;BME280;23698;52.014;5.190;2022-08-03T10:10:15;101461.69;;;28.64;100.00
37860;BME280;23698;52.014;5.190;2022-08-03T10:13:36;101466.72;;;28.14;100.00
37860;BME280;23698;52.014;5.190;2022-08-03T10:16:47;101466.81;;;28.33;100.00
37860;BME280;23698;52.014;5.190;2022-08-03T10:19:53;101458.59;;;28.41;100.00
37860;BME280;23698;52.014;5.190;2022-08-03T10:23:00;101464.63;;;28.92;100.00
37860;BME280;23698;52.014;5.190;2022-08-03T10:26:07;101459.50;;;28.61;100.00
37860;BME280;23698;52.014;5.190;2022-08-03T10:29:21;101453.00;;;28.66;100.00
37860;BME280;23698;52.014;5.190;2022-08-03T10:32:30;101453.41;;;28.59;100.00
37860;BME280;23698;52.014;5.190;2022-08-03T10:35:36;101454.25;;;28.97;100.00
37860;BME280;23698;52.014;5.190;2022-08-03T10:38:47;101446.88;;;29.26;100.00
37860;BME280;23698;52.014;5.190;2022-08-03T10:41:57;101456.75;;;29.18;100.00
37860;BME280;23698;52.014;5.190;2022-08-03T10:45:11;101455.00;;;29.03;100.00
37860;BME280;23698;52.014;5.190;2022-08-03T10:48:19;101444.44;;;29.00;100.00
37860;BME280;23698;52.014;5.190;2022-08-03T10:51:25;101442.31;;;29.82;100.00
37860;BME280;23698;52.014;5.190;2022-08-03T10:54:39;101447.78;;;29.87;100.00
37860;BME280;23698;52.014;5.190;2022-08-03T10:58:03;101446.31;;;29.43;100.00
37860;BME280;23698;52.014;5.190;2022-08-03T11:01:16;101448.50;;;29.79;100.00
37860;BME280;23698;52.014;5.190;2022-08-03T11:04:22;101446.75;;;29.50;100.00
37860;BME280;23698;52.014;5.190;2022-08-03T11:07:28;101437.31;;;29.79;100.00
37860;BME280;23698;52.014;5.190;2022-08-03T11:10:34;101433.34;;;29.66;100.00
37860;BME280;23698;52.014;5.190;2022-08-03T11:13:56;101428.97;;;29.60;100.00
37860;BME280;23698;52.014;5.190;2022-08-03T11:17:07;101431.16;;;29.11;100.00
37860;BME280;23698;52.014;5.190;2022-08-03T11:20:45;101433.56;;;29.69;100.00
37860;BME280;23698;52.014;5.190;2022-08-03T11:23:50;101436.50;;;29.78;100.00
37860;BME280;23698;52.014;5.190;2022-08-03T11:27:16;101438.50;;;29.59;100.00
37860;BME280;23698;52.014;5.190;2022-08-03T11:30:23;101431.97;;;30.10;100.00
37860;BME280;23698;52.014;5.190;2022-08-03T11:33:32;101429.38;;;30.13;100.00
37860;BME280;23698;52.014;5.190;2022-08-03T11:40:37;101429.75;;;30.76;100.00
37860;BME280;23698;52.014;5.190;2022-08-03T11:43:43;101429.81;;;30.35;100.00
37860;BME280;23698;52.014;5.190;2022-08-03T11:46:49;101424.03;;;30.95;100.00
37860;BME280;23698;52.014;5.190;2022-08-03T11:49:57;101426.91;;;31.27;100.00
37860;BME280;23698;52.014;5.190;2022-08-03T11:53:06;101422.19;;;31.58;100.00
37860;BME280;23698;52.014;5.190;2022-08-03T11:56:11;101427.97;;;31.39;100.00
37860;BME280;23698;52.014;5.190;2022-08-03T11:59:16;101427.66;;;31.64;100.00
37860;BME280;23698;52.014;5.190;2022-08-03T12:02:25;101432.38;;;31.32;100.00
37860;BME280;23698;52.014;5.190;2022-08-03T12:05:40;101426.28;;;31.07;100.00
37860;BME280;23698;52.014;5.190;2022-08-03T12:08:55;101433.06;;;31.15;100.00
37860;BME280;23698;52.014;5.190;2022-08-03T12:12:00;101435.03;;;31.51;100.00
37860;BME280;23698;52.014;5.190;2022-08-03T12:15:06;101426.19;;;31.66;100.00
37860;BME280;23698;52.014;5.190;2022-08-03T12:18:13;101426.47;;;31.87;100.00
37860;BME280;23698;52.014;5.190;2022-08-03T12:21:20;101425.59;;;32.09;100.00
37860;BME280;23698;52.014;5.190;2022-08-03T12:24:39;101423.28;;;32.11;100.00
37860;BME280;23698;52.014;5.190;2022-08-03T12:27:44;101433.22;;;31.86;100.00
37860;BME280;23698;52.014;5.190;2022-08-03T12:30:51;101430.56;;;31.81;100.00
37860;BME280;23698;52.014;5.190;2022-08-03T12:33:59;101428.03;;;31.03;100.00
37860;BME280;23698;52.014;5.190;2022-08-03T12:37:07;101430.28;;;31.60;100.00
37860;BME280;23698;52.014;5.190;2022-08-03T12:40:25;101424.34;;;31.93;100.00
37860;BME280;23698;52.014;5.190;2022-08-03T12:43:32;101415.91;;;32.15;100.00
37860;BME280;23698;52.014;5.190;2022-08-03T12:46:42;101423.81;;;32.22;100.00
37860;BME280;23698;52.014;5.190;2022-08-03T12:49:52;101432.63;;;32.38;100.00
37860;BME280;23698;52.014;5.190;2022-08-03T12:52:59;101427.09;;;32.07;100.00
37860;BME280;23698;52.014;5.190;2022-08-03T12:56:05;101432.31;;;31.46;100.00
37860;BME280;23698;52.014;5.190;2022-08-03T12:59:23;101421.00;;;32.22;100.00
37860;BME280;23698;52.014;5.190;2022-08-03T13:02:38;101417.00;;;32.06;100.00
37860;BME280;23698;52.014;5.190;2022-08-03T13:05:49;101419.28;;;32.04;100.00
37860;BME280;23698;52.014;5.190;2022-08-03T13:09:03;101420.91;;;32.53;100.00
37860;BME280;23698;52.014;5.190;2022-08-03T13:12:10;101406.50;;;32.29;100.00
37860;BME280;23698;52.014;5.190;2022-08-03T13:15:15;101411.75;;;32.13;100.00
37860;BME280;23698;52.014;5.190;2022-08-03T13:18:21;101409.19;;;31.40;100.00
37860;BME280;23698;52.014;5.190;2022-08-03T13:21:26;101410.47;;;31.88;100.00
37860;BME280;23698;52.014;5.190;2022-08-03T13:24:33;101412.34;;;32.01;100.00
37860;BME280;23698;52.014;5.190;2022-08-03T13:27:38;101416.66;;;31.67;100.00
37860;BME280;23698;52.014;5.190;2022-08-03T13:31:05;101415.78;;;32.29;100.00
37860;BME280;23698;52.014;5.190;2022-08-03T13:34:10;101412.09;;;33.21;100.00
37860;BME280;23698;52.014;5.190;2022-08-03T13:37:15;101411.72;;;33.40;100.00
37860;BME280;23698;52.014;5.190;2022-08-03T13:40:22;101416.94;;;34.15;100.00
37860;BME280;23698;52.014;5.190;2022-08-03T13:43:33;101414.41;;;33.28;100.00
37860;BME280;23698;52.014;5.190;2022-08-03T13:46:38;101412.88;;;32.78;100.00
37860;BME280;23698;52.014;5.190;2022-08-03T13:49:44;101412.13;;;31.89;100.00
37860;BME280;23698;52.014;5.190;2022-08-03T13:53:04;101407.56;;;32.02;100.00
37860;BME280;23698;52.014;5.190;2022-08-03T13:56:11;101416.16;;;32.45;100.00
37860;BME280;23698;52.014;5.190;2022-08-03T13:59:16;101408.44;;;32.11;100.00
37860;BME280;23698;52.014;5.190;2022-08-03T14:02:21;101412.06;;;32.60;100.00
37860;BME280;23698;52.014;5.190;2022-08-03T14:05:27;101407.31;;;32.12;100.00
37860;BME280;23698;52.014;5.190;2022-08-03T14:08:35;101404.91;;;32.36;100.00
37860;BME280;23698;52.014;5.190;2022-08-03T14:11:42;101407.97;;;31.77;100.00
37860;BME280;23698;52.014;5.190;2022-08-03T14:15:08;101400.09;;;32.37;100.00
37860;BME280;23698;52.014;5.190;2022-08-03T14:18:17;101395.72;;;32.62;100.00
37860;BME280;23698;52.014;5.190;2022-08-03T14:21:33;101393.59;;;32.68;100.00
37860;BME280;23698;52.014;5.190;2022-08-03T14:24:38;101386.31;;;32.67;100.00
37860;BME280;23698;52.014;5.190;2022-08-03T14:27:46;101384.00;;;33.04;100.00
37860;BME280;23698;52.014;5.190;2022-08-03T14:30:52;101390.94;;;32.98;100.00
37860;BME280;23698;52.014;5.190;2022-08-03T14:33:58;101371.09;;;33.38;100.00
37860;BME280;23698;52.014;5.190;2022-08-03T14:37:03;101384.31;;;32.76;100.00
37860;BME280;23698;52.014;5.190;2022-08-03T14:40:09;101372.75;;;33.12;100.00
37860;BME280;23698;52.014;5.190;2022-08-03T14:43:16;101373.38;;;33.36;100.00
37860;BME280;23698;52.014;5.190;2022-08-03T14:46:23;101367.28;;;33.07;100.00
37860;BME280;23698;52.014;5.190;2022-08-03T14:49:29;101366.31;;;33.21;100.00
37860;BME280;23698;52.014;5.190;2022-08-03T14:52:56;101369.69;;;33.53;100.00
37860;BME280;23698;52.014;5.190;2022-08-03T14:56:01;101361.03;;;33.10;100.00
37860;BME280;23698;52.014;5.190;2022-08-03T14:59:14;101362.47;;;34.29;100.00
37860;BME280;23698;52.014;5.190;2022-08-03T15:02:20;101373.59;;;34.46;98.47
37860;BME280;23698;52.014;5.190;2022-08-03T15:05:27;101366.69;;;34.05;100.00
37860;BME280;23698;52.014;5.190;2022-08-03T15:08:32;101361.03;;;34.86;97.56
37860;BME280;23698;52.014;5.190;2022-08-03T15:11:38;101353.81;;;34.97;92.93
37860;BME280;23698;52.014;5.190;2022-08-03T15:14:44;101351.34;;;35.29;95.61
37860;BME280;23698;52.014;5.190;2022-08-03T15:17:50;101356.31;;;35.11;91.46
37860;BME280;23698;52.014;5.190;2022-08-03T15:21:03;101344.09;;;35.65;88.45
37860;BME280;23698;52.014;5.190;2022-08-03T15:24:30;101345.38;;;34.97;91.26
37860;BME280;23698;52.014;5.190;2022-08-03T15:27:36;101345.72;;;34.53;94.82
37860;BME280;23698;52.014;5.190;2022-08-03T15:31:03;101342.06;;;34.74;91.35
37860;BME280;23698;52.014;5.190;2022-08-03T15:34:08;101346.56;;;35.08;91.76
37860;BME280;23698;52.014;5.190;2022-08-03T15:37:15;101352.84;;;35.26;88.97
37860;BME280;23698;52.014;5.190;2022-08-03T15:40:20;101330.97;;;35.69;88.92
37860;BME280;23698;52.014;5.190;2022-08-03T15:43:26;101327.13;;;35.86;86.09
37860;BME280;23698;52.014;5.190;2022-08-03T15:46:33;101332.03;;;35.77;89.05
37860;BME280;23698;52.014;5.190;2022-08-03T15:49:38;101331.31;;;36.29;84.13
37860;BME280;23698;52.014;5.190;2022-08-03T15:52:43;101325.88;;;35.25;89.64
37860;BME280;23698;52.014;5.190;2022-08-03T15:55:48;101327.09;;;34.82;93.25
37860;BME280;23698;52.014;5.190;2022-08-03T15:58:53;101313.59;;;35.91;89.00
37860;BME280;23698;52.014;5.190;2022-08-03T16:02:17;101319.84;;;35.72;86.63
37860;BME280;23698;52.014;5.190;2022-08-03T16:05:23;101318.19;;;36.21;82.62
37860;BME280;23698;52.014;5.190;2022-08-03T16:08:29;101312.75;;;35.91;84.57
37860;BME280;23698;52.014;5.190;2022-08-03T16:11:35;101310.78;;;36.85;81.35
37860;BME280;23698;52.014;5.190;2022-08-03T16:14:40;101311.72;;;36.89;81.94
37860;BME280;23698;52.014;5.190;2022-08-03T16:17:57;101307.00;;;37.09;78.53
37860;BME280;23698;52.014;5.190;2022-08-03T16:21:02;101307.44;;;36.95;78.21
37860;BME280;23698;52.014;5.190;2022-08-03T16:24:11;101298.19;;;37.58;79.92